createdAt,value
2023-08-28T00:00:00.525Z,22.81
2023-08-28T00:02:28.535Z,22.76
2023-08-28T00:04:56.536Z,22.69
2023-08-28T00:07:24.509Z,22.64
2023-08-28T00:09:52.700Z,22.59
2023-08-28T00:12:20.824Z,22.56
2023-08-28T00:14:48.991Z,22.53
2023-08-28T00:17:19.183Z,22.50
2023-08-28T00:19:47.191Z,22.44
2023-08-28T00:22:15.173Z,22.39
2023-08-28T00:24:43.114Z,22.37
2023-08-28T00:27:10.948Z,22.33
2023-08-28T00:29:38.828Z,22.32
2023-08-28T00:32:06.971Z,22.29
2023-08-28T00:34:34.964Z,22.27
2023-08-28T00:37:02.899Z,22.28
2023-08-28T00:39:30.851Z,22.27
2023-08-28T00:41:58.756Z,22.26
2023-08-28T00:44:26.728Z,22.26
2023-08-28T00:46:54.779Z,22.25
2023-08-28T00:49:23.006Z,22.25
2023-08-28T00:51:51.071Z,22.25
2023-08-28T00:54:19.095Z,22.24
2023-08-28T00:56:49.083Z,22.23
2023-08-28T00:59:17.811Z,22.21
2023-08-28T01:01:46.156Z,22.18
2023-08-28T01:04:14.280Z,22.15
2023-08-28T01:07:08.719Z,22.14
2023-08-28T01:09:51.773Z,22.09
2023-08-28T01:12:45.099Z,22.02
2023-08-28T01:15:22.765Z,21.94
2023-08-28T01:18:01.905Z,21.92
2023-08-28T01:20:31.786Z,21.86
2023-08-28T01:23:15.722Z,21.80
2023-08-28T01:25:44.179Z,21.76
2023-08-28T01:28:12.123Z,21.74
2023-08-28T01:30:39.987Z,21.73
2023-08-28T01:33:08.084Z,21.74
2023-08-28T01:35:36.567Z,21.72
2023-08-28T01:38:32.349Z,21.72
2023-08-28T01:41:04.911Z,21.65
2023-08-28T01:43:38.545Z,21.59
2023-08-28T01:46:08.067Z,21.53
2023-08-28T01:48:36.910Z,21.46
2023-08-28T01:51:05.326Z,21.39
2023-08-28T01:53:33.310Z,21.34
2023-08-28T01:56:10.264Z,21.32
2023-08-28T01:58:43.585Z,21.32
2023-08-28T02:01:12.107Z,21.33
2023-08-28T02:03:40.634Z,21.29
2023-08-28T02:06:09.460Z,21.25
2023-08-28T02:08:37.931Z,21.24
2023-08-28T02:11:06.687Z,21.20
2023-08-28T02:13:34.773Z,21.16
2023-08-28T02:16:04.023Z,21.10
2023-08-28T02:18:32.054Z,21.02
2023-08-28T02:21:00.187Z,20.94
2023-08-28T02:23:29.879Z,20.93
2023-08-28T02:25:57.806Z,20.93
2023-08-28T02:28:26.598Z,20.92
2023-08-28T02:30:54.650Z,20.88
2023-08-28T02:33:23.175Z,20.85
2023-08-28T02:35:51.069Z,20.80
2023-08-28T02:38:20.115Z,20.75
2023-08-28T02:40:48.083Z,20.71
2023-08-28T02:43:15.959Z,20.69
2023-08-28T02:45:43.934Z,20.70
2023-08-28T02:48:12.031Z,20.72
2023-08-28T02:50:39.960Z,20.70
2023-08-28T02:53:07.903Z,20.66
2023-08-28T02:55:41.235Z,20.62
2023-08-28T02:58:10.685Z,20.58
2023-08-28T03:00:39.476Z,20.55
2023-08-28T03:03:07.846Z,20.54
2023-08-28T03:05:36.208Z,20.54
2023-08-28T03:08:05.203Z,20.54
2023-08-28T03:10:36.001Z,20.54
2023-08-28T03:13:04.918Z,20.56
2023-08-28T03:15:33.235Z,20.58
2023-08-28T03:18:01.213Z,20.58
2023-08-28T03:20:29.123Z,20.56
2023-08-28T03:22:57.082Z,20.55
2023-08-28T03:25:25.412Z,20.55
2023-08-28T03:27:53.925Z,20.55
2023-08-28T03:30:21.848Z,20.56
2023-08-28T03:32:49.874Z,20.56
2023-08-28T03:35:17.992Z,20.55
2023-08-28T03:37:45.954Z,20.53
2023-08-28T03:40:13.938Z,20.51
2023-08-28T03:42:41.813Z,20.51
2023-08-28T03:45:10.180Z,20.51
2023-08-28T03:47:38.201Z,20.49
2023-08-28T03:50:06.496Z,20.42
2023-08-28T03:52:34.314Z,20.34
2023-08-28T03:55:02.565Z,20.29
2023-08-28T03:57:30.831Z,20.25
2023-08-28T03:59:58.811Z,20.22
2023-08-28T04:02:26.682Z,20.18
2023-08-28T04:05:06.726Z,20.13
2023-08-28T04:07:36.350Z,20.09
2023-08-28T04:10:04.684Z,20.08
2023-08-28T04:12:33.772Z,20.10
2023-08-28T04:15:01.697Z,20.14
2023-08-28T04:17:29.726Z,20.17
2023-08-28T04:19:57.744Z,20.19
2023-08-28T04:22:25.639Z,20.20
2023-08-28T04:24:55.218Z,20.23
2023-08-28T04:27:23.091Z,20.26
2023-08-28T04:29:52.709Z,20.27
2023-08-28T04:32:22.405Z,20.28
2023-08-28T04:34:50.416Z,20.26
2023-08-28T04:37:18.424Z,20.24
2023-08-28T04:39:46.254Z,20.23
2023-08-28T04:42:16.011Z,20.22
2023-08-28T04:44:44.054Z,20.21
2023-08-28T04:47:13.862Z,20.21
2023-08-28T04:49:42.471Z,20.23
2023-08-28T04:52:10.423Z,20.27
2023-08-28T04:54:38.396Z,20.35
2023-08-28T04:57:06.444Z,20.41
2023-08-28T04:59:34.590Z,20.47
2023-08-28T05:02:02.558Z,20.52
2023-08-28T05:04:30.479Z,20.59
2023-08-28T05:06:58.473Z,20.66
2023-08-28T05:09:26.563Z,20.72
2023-08-28T05:11:54.494Z,20.77
2023-08-28T05:14:22.372Z,20.80
2023-08-28T05:16:50.422Z,20.83
2023-08-28T05:19:18.264Z,20.87
2023-08-28T05:21:46.129Z,20.92
2023-08-28T05:24:14.182Z,20.99
2023-08-28T05:26:42.034Z,21.07
2023-08-28T05:29:10.068Z,21.10
2023-08-28T05:31:38.065Z,21.11
2023-08-28T05:34:06.198Z,21.12
2023-08-28T05:36:34.175Z,21.13
2023-08-28T05:39:02.273Z,21.15
2023-08-28T05:41:30.355Z,21.21
2023-08-28T05:43:58.549Z,21.28
2023-08-28T05:46:26.579Z,21.35
2023-08-28T05:48:54.496Z,21.41
2023-08-28T05:51:22.508Z,21.46
2023-08-28T05:53:50.581Z,21.51
2023-08-28T05:56:18.653Z,21.59
2023-08-28T05:58:46.563Z,21.67
2023-08-28T06:01:14.523Z,21.76
2023-08-28T06:03:42.554Z,21.85
2023-08-28T06:06:13.169Z,21.94
2023-08-28T06:08:41.010Z,22.04
2023-08-28T06:11:09.080Z,22.14
2023-08-28T06:13:37.496Z,22.24
2023-08-28T06:16:05.977Z,22.34
2023-08-28T06:18:33.966Z,22.46
2023-08-28T06:21:01.999Z,22.57
2023-08-28T06:23:31.127Z,22.69
2023-08-28T06:25:59.127Z,22.82
2023-08-28T06:28:26.947Z,22.94
2023-08-28T06:30:54.995Z,23.04
2023-08-28T06:33:23.044Z,23.14
2023-08-28T06:35:51.105Z,23.21
2023-08-28T06:38:19.125Z,23.26
2023-08-28T06:40:58.542Z,23.30
2023-08-28T06:43:26.742Z,23.33
2023-08-28T06:45:54.728Z,23.38
2023-08-28T06:48:22.716Z,23.46
2023-08-28T06:50:52.591Z,23.52
2023-08-28T06:53:20.831Z,23.57
2023-08-28T06:55:48.857Z,23.62
2023-08-28T06:58:16.736Z,23.69
2023-08-28T07:00:44.646Z,23.77
2023-08-28T07:03:12.885Z,23.85
2023-08-28T07:05:41.637Z,23.94
2023-08-28T07:08:09.915Z,24.04
2023-08-28T07:10:37.948Z,24.13
2023-08-28T07:13:06.995Z,24.22
2023-08-28T07:15:34.950Z,24.30
2023-08-28T07:18:04.336Z,24.40
2023-08-28T07:20:32.981Z,24.51
2023-08-28T07:23:01.632Z,24.62
2023-08-28T07:25:29.914Z,24.74
2023-08-28T07:27:57.864Z,24.85
2023-08-28T07:30:25.868Z,24.97
2023-08-28T07:32:53.820Z,25.10
2023-08-28T07:35:21.752Z,25.24
2023-08-28T07:37:49.606Z,25.37
2023-08-28T07:40:17.574Z,25.51
2023-08-28T07:42:45.381Z,25.66
2023-08-28T07:45:13.135Z,25.81
2023-08-28T07:47:42.471Z,25.95
2023-08-28T07:50:12.959Z,26.10
2023-08-28T07:52:42.230Z,26.22
2023-08-28T07:55:10.662Z,26.36
2023-08-28T07:57:38.581Z,26.48
2023-08-28T08:00:07.670Z,26.60
2023-08-28T08:02:35.789Z,26.70
2023-08-28T08:05:05.348Z,26.81
2023-08-28T08:07:36.130Z,26.92
2023-08-28T08:10:04.446Z,27.03
2023-08-28T08:12:32.377Z,27.13
2023-08-28T08:15:00.395Z,27.24
2023-08-28T08:17:28.982Z,27.38
2023-08-28T08:19:56.982Z,27.51
2023-08-28T08:22:26.134Z,27.62
2023-08-28T08:24:54.102Z,27.72
2023-08-28T08:27:21.980Z,27.85
2023-08-28T08:29:50.187Z,28.00
2023-08-28T08:32:18.342Z,28.14
2023-08-28T08:34:46.507Z,28.27
2023-08-28T08:37:16.222Z,28.40
2023-08-28T08:39:44.097Z,28.53
2023-08-28T08:42:12.145Z,28.64
2023-08-28T08:44:41.034Z,28.76
2023-08-28T08:47:09.009Z,28.87
2023-08-28T08:49:42.189Z,28.97
2023-08-28T08:52:14.108Z,29.07
2023-08-28T08:54:43.201Z,29.17
2023-08-28T08:57:28.148Z,29.29
2023-08-28T08:59:56.618Z,29.39
2023-08-28T09:02:26.991Z,29.51
2023-08-28T09:04:55.755Z,29.65
2023-08-28T09:07:26.501Z,29.80
2023-08-28T09:09:55.202Z,29.95
2023-08-28T09:12:23.231Z,30.10
2023-08-28T09:14:51.233Z,30.24
2023-08-28T09:17:19.956Z,30.38
2023-08-28T09:19:48.928Z,30.51
2023-08-28T09:22:17.326Z,30.65
2023-08-28T09:24:45.411Z,30.78
2023-08-28T09:27:15.263Z,30.92
2023-08-28T09:29:43.276Z,31.03
2023-08-28T09:32:11.974Z,31.15
2023-08-28T09:34:42.769Z,31.25
2023-08-28T09:37:13.891Z,31.36
2023-08-28T09:39:42.609Z,31.46
2023-08-28T09:42:11.389Z,31.58
2023-08-28T09:44:39.794Z,31.71
2023-08-28T09:47:07.912Z,31.84
2023-08-28T09:49:44.298Z,31.98
2023-08-28T09:52:13.010Z,32.12
2023-08-28T09:54:44.121Z,32.24
2023-08-28T09:57:18.655Z,32.36
2023-08-28T09:59:46.602Z,32.48
2023-08-28T10:02:23.015Z,32.60
2023-08-28T10:04:53.891Z,32.73
2023-08-28T10:07:25.118Z,32.84
2023-08-28T10:09:57.273Z,32.95
2023-08-28T10:12:26.893Z,33.11
2023-08-28T10:14:56.189Z,33.31
2023-08-28T10:17:28.625Z,33.50
2023-08-28T10:19:59.606Z,33.69
2023-08-28T10:22:29.966Z,33.91
2023-08-28T10:24:59.415Z,34.12
2023-08-28T10:27:28.012Z,34.34
2023-08-28T10:29:56.264Z,34.56
2023-08-28T10:32:25.074Z,34.78
2023-08-28T10:34:53.904Z,34.96
2023-08-28T10:37:28.391Z,35.12
2023-08-28T10:40:02.565Z,35.28
2023-08-28T10:42:31.780Z,35.41
2023-08-28T10:45:02.308Z,35.51
2023-08-28T10:47:31.283Z,35.60
2023-08-28T10:49:59.408Z,35.62
2023-08-28T10:52:28.428Z,35.64
2023-08-28T10:55:00.293Z,35.66
2023-08-28T10:57:29.428Z,35.69
2023-08-28T11:00:02.147Z,35.70
2023-08-28T11:03:08.218Z,35.72
2023-08-28T11:05:39.995Z,35.73
2023-08-28T11:08:13.236Z,35.77
2023-08-28T11:10:45.745Z,35.88
2023-08-28T11:13:25.195Z,35.93
2023-08-28T11:16:04.575Z,35.96
2023-08-28T11:18:32.966Z,36.01
2023-08-28T11:21:07.513Z,36.07
2023-08-28T11:23:55.881Z,36.14
2023-08-28T11:26:23.897Z,36.18
2023-08-28T11:28:52.102Z,36.23
2023-08-28T11:31:21.070Z,36.26
2023-08-28T11:33:55.607Z,36.22
2023-08-28T11:36:23.630Z,36.15
2023-08-28T11:38:56.234Z,36.07
2023-08-28T11:41:24.489Z,35.97
2023-08-28T11:43:53.363Z,35.82
2023-08-28T11:46:25.925Z,35.63
2023-08-28T11:48:54.078Z,35.48
2023-08-28T11:51:26.217Z,35.36
2023-08-28T11:53:54.141Z,35.25
2023-08-28T11:56:22.041Z,35.15
2023-08-28T11:58:50.581Z,35.04
2023-08-28T12:01:18.946Z,34.96
2023-08-28T12:03:46.909Z,34.91
2023-08-28T12:06:18.924Z,34.86
2023-08-28T12:08:48.306Z,34.80
2023-08-28T12:11:16.658Z,34.78
2023-08-28T12:13:44.794Z,34.84
2023-08-28T12:16:19.216Z,34.93
2023-08-28T12:18:53.037Z,35.05
2023-08-28T12:21:35.394Z,35.14
2023-08-28T12:24:03.857Z,35.21
2023-08-28T12:26:31.800Z,35.26
2023-08-28T12:28:59.930Z,35.28
2023-08-28T12:31:35.376Z,35.28
2023-08-28T12:34:10.669Z,35.25
2023-08-28T12:36:40.425Z,35.19
2023-08-28T12:39:16.805Z,35.11
2023-08-28T12:41:54.598Z,35.03
2023-08-28T12:44:23.794Z,34.96
2023-08-28T12:46:52.227Z,34.91
2023-08-28T12:49:21.012Z,34.88
2023-08-28T12:51:51.466Z,34.84
2023-08-28T12:54:22.340Z,34.80
2023-08-28T12:56:51.208Z,34.78
2023-08-28T12:59:20.601Z,34.80
2023-08-28T13:01:49.180Z,34.81
2023-08-28T13:04:17.785Z,34.79
2023-08-28T13:06:45.845Z,34.77
2023-08-28T13:09:13.967Z,34.73
2023-08-28T13:11:42.148Z,34.70
2023-08-28T13:14:10.542Z,34.68
2023-08-28T13:16:38.696Z,34.65
2023-08-28T13:19:07.822Z,34.66
2023-08-28T13:21:35.723Z,34.66
2023-08-28T13:24:04.591Z,34.67
2023-08-28T13:26:33.034Z,34.69
2023-08-28T13:29:01.207Z,34.69
2023-08-28T13:31:30.613Z,34.70
2023-08-28T13:33:58.748Z,34.69
2023-08-28T13:36:27.469Z,34.67
2023-08-28T13:38:55.473Z,34.65
2023-08-28T13:41:24.329Z,34.63
2023-08-28T13:43:52.241Z,34.61
2023-08-28T13:46:20.229Z,34.61
2023-08-28T13:48:48.704Z,34.61
2023-08-28T13:51:16.675Z,34.60
2023-08-28T13:53:44.626Z,34.59
2023-08-28T13:56:13.667Z,34.59
2023-08-28T13:58:41.708Z,34.59
2023-08-28T14:01:10.116Z,34.61
2023-08-28T14:03:38.234Z,34.71
2023-08-28T14:06:06.659Z,34.82
2023-08-28T14:08:35.595Z,34.89
2023-08-28T14:11:07.864Z,34.92
2023-08-28T14:13:37.956Z,34.91
2023-08-28T14:16:06.513Z,34.85
2023-08-28T14:18:35.080Z,34.78
2023-08-28T14:21:05.294Z,34.71
2023-08-28T14:23:34.815Z,34.64
2023-08-28T14:26:04.315Z,34.61
2023-08-28T14:28:32.801Z,34.58
2023-08-28T14:31:01.113Z,34.54
2023-08-28T14:33:29.091Z,34.50
2023-08-28T14:35:57.010Z,34.46
2023-08-28T14:38:25.619Z,34.43
2023-08-28T14:40:54.718Z,34.41
2023-08-28T14:43:22.768Z,34.39
2023-08-28T14:45:53.239Z,34.35
2023-08-28T14:48:21.356Z,34.32
2023-08-28T14:50:49.751Z,34.29
2023-08-28T14:53:17.704Z,34.26
2023-08-28T14:55:51.568Z,34.25
2023-08-28T14:58:19.532Z,34.24
2023-08-28T15:00:51.289Z,34.22
2023-08-28T15:03:19.615Z,34.20
2023-08-28T15:05:47.988Z,34.19
2023-08-28T15:08:17.877Z,34.22
2023-08-28T15:10:47.550Z,34.26
2023-08-28T15:13:16.607Z,34.35
2023-08-28T15:15:50.812Z,34.42
2023-08-28T15:18:19.399Z,34.45
2023-08-28T15:20:48.111Z,34.42
2023-08-28T15:23:18.334Z,34.38
2023-08-28T15:25:46.793Z,34.32
2023-08-28T15:28:15.200Z,34.27
2023-08-28T15:30:43.248Z,34.23
2023-08-28T15:33:12.492Z,34.17
2023-08-28T15:35:40.505Z,34.10
2023-08-28T15:38:10.089Z,34.04
2023-08-28T15:40:38.072Z,33.98
2023-08-28T15:43:06.618Z,33.92
2023-08-28T15:45:35.027Z,33.87
2023-08-28T15:48:06.409Z,33.84
2023-08-28T15:50:34.885Z,33.89
2023-08-28T15:53:02.933Z,34.15
2023-08-28T15:55:33.569Z,34.60
2023-08-28T15:58:01.677Z,34.98
2023-08-28T16:00:29.614Z,35.20
2023-08-28T16:02:57.857Z,35.24
2023-08-28T16:05:26.602Z,35.17
2023-08-28T16:07:54.504Z,35.01
2023-08-28T16:10:22.451Z,34.82
2023-08-28T16:12:50.694Z,34.63
2023-08-28T16:15:18.838Z,34.41
2023-08-28T16:17:47.323Z,34.16
2023-08-28T16:20:15.803Z,33.90
2023-08-28T16:22:43.942Z,33.65
2023-08-28T16:25:11.887Z,33.40
2023-08-28T16:27:44.966Z,33.15
2023-08-28T16:30:13.848Z,32.92
2023-08-28T16:32:43.053Z,32.71
2023-08-28T16:35:12.522Z,32.49
2023-08-28T16:37:41.520Z,32.30
2023-08-28T16:40:10.829Z,32.14
2023-08-28T16:42:38.690Z,32.00
2023-08-28T16:45:07.438Z,31.87
2023-08-28T16:47:35.448Z,31.73
2023-08-28T16:50:04.506Z,31.61
2023-08-28T16:52:32.904Z,31.49
2023-08-28T16:55:00.916Z,31.38
2023-08-28T16:57:31.365Z,31.26
2023-08-28T17:00:00.124Z,31.15
2023-08-28T17:02:28.123Z,31.03
2023-08-28T17:04:56.111Z,30.91
2023-08-28T17:07:26.143Z,30.80
2023-08-28T17:09:54.102Z,30.70
2023-08-28T17:12:22.761Z,30.61
2023-08-28T17:14:51.005Z,30.51
2023-08-28T17:17:19.002Z,30.40
2023-08-28T17:19:46.887Z,30.30
2023-08-28T17:22:15.321Z,30.20
2023-08-28T17:24:43.240Z,30.10
2023-08-28T17:27:11.130Z,30.01
2023-08-28T17:29:39.096Z,29.91
2023-08-28T17:32:07.381Z,29.83
2023-08-28T17:34:35.303Z,29.75
2023-08-28T17:37:03.405Z,29.66
2023-08-28T17:39:31.424Z,29.60
2023-08-28T17:41:59.314Z,29.54
2023-08-28T17:44:28.078Z,29.48
2023-08-28T17:46:56.522Z,29.42
2023-08-28T17:49:24.597Z,29.37
2023-08-28T17:51:52.587Z,29.31
2023-08-28T17:54:20.658Z,29.26
2023-08-28T17:56:49.762Z,29.21
2023-08-28T17:59:17.707Z,29.16
2023-08-28T18:01:47.140Z,29.12
2023-08-28T18:04:17.487Z,29.08
2023-08-28T18:06:47.441Z,29.03
2023-08-28T18:09:15.852Z,28.98
2023-08-28T18:11:47.167Z,28.94
2023-08-28T18:14:15.375Z,28.90
2023-08-28T18:16:45.998Z,28.86
2023-08-28T18:19:13.896Z,28.83
2023-08-28T18:21:42.037Z,28.80
2023-08-28T18:24:10.118Z,28.75
2023-08-28T18:26:38.149Z,28.72
2023-08-28T18:29:06.098Z,28.67
2023-08-28T18:31:34.053Z,28.64
2023-08-28T18:34:02.058Z,28.61
2023-08-28T18:36:30.043Z,28.59
2023-08-28T18:38:58.118Z,28.56
2023-08-28T18:41:26.092Z,28.53
2023-08-28T18:43:54.257Z,28.48
2023-08-28T18:46:22.262Z,28.46
2023-08-28T18:48:50.244Z,28.42
2023-08-28T18:51:19.698Z,28.38
2023-08-28T18:53:47.714Z,28.33
2023-08-28T18:56:15.654Z,28.29
2023-08-28T18:58:44.073Z,28.26
2023-08-28T19:01:12.282Z,28.22
2023-08-28T19:03:40.913Z,28.18
2023-08-28T19:06:09.306Z,28.10
2023-08-28T19:08:37.660Z,28.03
2023-08-28T19:11:06.825Z,27.95
2023-08-28T19:13:34.893Z,27.88
2023-08-28T19:16:03.037Z,27.80
2023-08-28T19:18:31.129Z,27.73
2023-08-28T19:21:02.913Z,27.66
2023-08-28T19:23:31.993Z,27.60
2023-08-28T19:26:00.121Z,27.54
2023-08-28T19:28:28.428Z,27.47
2023-08-28T19:30:56.591Z,27.40
2023-08-28T19:33:24.630Z,27.35
2023-08-28T19:35:52.725Z,27.27
2023-08-28T19:38:20.718Z,27.19
2023-08-28T19:40:51.155Z,27.15
2023-08-28T19:43:19.176Z,27.08
2023-08-28T19:45:47.281Z,27.00
2023-08-28T19:48:15.476Z,26.90
2023-08-28T19:50:43.456Z,26.79
2023-08-28T19:53:13.087Z,26.68
2023-08-28T19:55:42.270Z,26.58
2023-08-28T19:58:10.428Z,26.49
2023-08-28T20:00:38.401Z,26.42
2023-08-28T20:03:06.439Z,26.33
2023-08-28T20:05:34.422Z,26.26
2023-08-28T20:08:02.779Z,26.20
2023-08-28T20:10:31.604Z,26.12
2023-08-28T20:12:59.641Z,26.04
2023-08-28T20:15:27.771Z,25.98
2023-08-28T20:17:55.911Z,25.90
2023-08-28T20:20:24.091Z,25.86
2023-08-28T20:22:52.103Z,25.83
2023-08-28T20:25:20.058Z,25.80
2023-08-28T20:27:48.004Z,25.78
2023-08-28T20:30:16.028Z,25.77
2023-08-28T20:32:44.021Z,25.76
2023-08-28T20:35:12.001Z,25.75
2023-08-28T20:37:40.469Z,25.76
2023-08-28T20:40:13.238Z,25.77
2023-08-28T20:42:42.835Z,25.80
2023-08-28T20:45:11.408Z,25.84
2023-08-28T20:47:39.698Z,25.87
2023-08-28T20:50:09.457Z,25.89
2023-08-28T20:52:39.065Z,25.92
2023-08-28T20:55:08.546Z,25.95
2023-08-28T20:57:36.793Z,25.95
2023-08-28T21:00:06.154Z,25.93
2023-08-28T21:02:34.347Z,25.85
2023-08-28T21:05:02.872Z,25.71
2023-08-28T21:07:30.688Z,25.53
2023-08-28T21:09:58.731Z,25.34
2023-08-28T21:12:26.659Z,25.20
2023-08-28T21:14:55.458Z,25.11
2023-08-28T21:17:23.457Z,25.04
2023-08-28T21:19:54.283Z,24.98
2023-08-28T21:22:24.964Z,24.91
2023-08-28T21:24:52.894Z,24.85
2023-08-28T21:27:20.934Z,24.78
2023-08-28T21:29:48.831Z,24.71
2023-08-28T21:32:16.762Z,24.64
2023-08-28T21:34:44.841Z,24.55
2023-08-28T21:37:12.928Z,24.44
2023-08-28T21:39:41.048Z,24.35
2023-08-28T21:42:08.994Z,24.27
2023-08-28T21:44:37.097Z,24.21
2023-08-28T21:47:06.329Z,24.15
2023-08-28T21:49:34.215Z,24.11
2023-08-28T21:52:02.065Z,24.06
2023-08-28T21:54:30.080Z,24.02
2023-08-28T21:56:58.037Z,24.00
2023-08-28T21:59:26.231Z,24.02
2023-08-28T22:01:54.083Z,24.00
2023-08-28T22:04:21.928Z,23.98
2023-08-28T22:06:51.601Z,23.97
2023-08-28T22:09:19.792Z,23.91
2023-08-28T22:11:47.595Z,23.88
2023-08-28T22:14:15.566Z,23.86
2023-08-28T22:16:43.663Z,23.81
2023-08-28T22:19:11.708Z,23.77
2023-08-28T22:21:39.784Z,23.74
2023-08-28T22:24:08.240Z,23.70
2023-08-28T22:26:36.205Z,23.67
2023-08-28T22:29:04.391Z,23.62
2023-08-28T22:31:32.309Z,23.55
2023-08-28T22:34:00.352Z,23.49
2023-08-28T22:36:28.196Z,23.46
2023-08-28T22:38:56.191Z,23.38
2023-08-28T22:41:24.295Z,23.32
2023-08-28T22:43:52.270Z,23.29
2023-08-28T22:46:20.265Z,23.23
2023-08-28T22:48:49.429Z,23.17
2023-08-28T22:51:17.361Z,23.12
2023-08-28T22:53:45.360Z,23.07
2023-08-28T22:56:13.285Z,23.03
2023-08-28T22:58:41.219Z,22.95
2023-08-28T23:01:09.546Z,22.90
2023-08-28T23:03:37.552Z,22.87
2023-08-28T23:06:06.686Z,22.85
2023-08-28T23:08:34.751Z,22.81
2023-08-28T23:11:03.278Z,22.78
2023-08-28T23:13:31.397Z,22.75
2023-08-28T23:15:59.443Z,22.71
2023-08-28T23:18:28.000Z,22.68
2023-08-28T23:20:59.221Z,22.63
2023-08-28T23:23:27.654Z,22.57
2023-08-28T23:25:55.670Z,22.54
2023-08-28T23:28:24.425Z,22.50
2023-08-28T23:30:52.377Z,22.45
2023-08-28T23:33:20.594Z,22.42
2023-08-28T23:35:48.596Z,22.39
2023-08-28T23:38:16.676Z,22.36
2023-08-28T23:40:45.002Z,22.33
2023-08-28T23:43:13.203Z,22.30
2023-08-28T23:45:41.974Z,22.27
2023-08-28T23:48:09.948Z,22.25
2023-08-28T23:50:38.183Z,22.23
2023-08-28T23:53:06.125Z,22.20
2023-08-28T23:55:34.151Z,22.18
2023-08-28T23:58:02.503Z,22.14
